sensor_id;sensor_type;location;lat;lon;timestamp;temperature;humidity
13980;DHT22;73871;49.900;8.594;2023-12-28T00:02:03;7.30;99.90
13980;DHT22;73871;49.900;8.594;2023-12-28T00:04:29;7.30;99.90
13980;DHT22;73871;49.900;8.594;2023-12-28T00:06:56;7.40;99.90
13980;DHT22;73871;49.900;8.594;2023-12-28T00:09:23;7.40;99.90
13980;DHT22;73871;49.900;8.594;2023-12-28T00:11:50;7.40;99.90
13980;DHT22;73871;49.900;8.594;2023-12-28T00:14:17;7.40;99.90
13980;DHT22;73871;49.900;8.594;2023-12-28T00:16:44;7.40;99.90
13980;DHT22;73871;49.900;8.594;2023-12-28T00:19:10;7.50;99.90
13980;DHT22;73871;49.900;8.594;2023-12-28T00:21:37;7.50;99.90
13980;DHT22;73871;49.900;8.594;2023-12-28T00:24:04;7.60;99.90
13980;DHT22;73871;49.900;8.594;2023-12-28T00:26:31;7.60;99.90
13980;DHT22;73871;49.900;8.594;2023-12-28T00:29:03;7.60;99.90
13980;DHT22;73871;49.900;8.594;2023-12-28T00:31:29;7.60;99.90
13980;DHT22;73871;49.900;8.594;2023-12-28T00:33:56;7.60;99.90
13980;DHT22;73871;49.900;8.594;2023-12-28T00:36:23;7.70;99.90
13980;DHT22;73871;49.900;8.594;2023-12-28T00:38:50;7.70;99.90
13980;DHT22;73871;49.900;8.594;2023-12-28T00:41:17;7.70;99.90
13980;DHT22;73871;49.900;8.594;2023-12-28T00:43:44;7.70;99.90
13980;DHT22;73871;49.900;8.594;2023-12-28T00:46:10;7.70;99.90
13980;DHT22;73871;49.900;8.594;2023-12-28T00:48:37;7.80;99.90
13980;DHT22;73871;49.900;8.594;2023-12-28T00:51:04;7.80;99.90
13980;DHT22;73871;49.900;8.594;2023-12-28T00:53:31;7.70;99.90
13980;DHT22;73871;49.900;8.594;2023-12-28T00:55:57;7.80;99.90
13980;DHT22;73871;49.900;8.594;2023-12-28T00:58:24;7.80;99.90
13980;DHT22;73871;49.900;8.594;2023-12-28T01:00:51;7.90;99.90
13980;DHT22;73871;49.900;8.594;2023-12-28T01:03:22;8.10;99.90
13980;DHT22;73871;49.900;8.594;2023-12-28T01:05:50;8.10;99.90
13980;DHT22;73871;49.900;8.594;2023-12-28T01:08:19;8.20;99.90
13980;DHT22;73871;49.900;8.594;2023-12-28T01:10:45;8.20;99.90
13980;DHT22;73871;49.900;8.594;2023-12-28T01:13:13;8.30;99.90
13980;DHT22;73871;49.900;8.594;2023-12-28T01:15:40;8.40;99.90
13980;DHT22;73871;49.900;8.594;2023-12-28T01:18:07;8.40;99.90
13980;DHT22;73871;49.900;8.594;2023-12-28T01:20:34;8.50;99.90
13980;DHT22;73871;49.900;8.594;2023-12-28T01:23:03;8.60;99.90
13980;DHT22;73871;49.900;8.594;2023-12-28T01:25:31;8.70;99.90
13980;DHT22;73871;49.900;8.594;2023-12-28T01:27:58;8.80;99.90
13980;DHT22;73871;49.900;8.594;2023-12-28T01:30:26;8.80;99.90
13980;DHT22;73871;49.900;8.594;2023-12-28T01:32:53;8.90;99.90
13980;DHT22;73871;49.900;8.594;2023-12-28T01:35:20;8.90;99.90
13980;DHT22;73871;49.900;8.594;2023-12-28T01:37:47;9.00;99.90
13980;DHT22;73871;49.900;8.594;2023-12-28T01:40:15;9.00;99.90
13980;DHT22;73871;49.900;8.594;2023-12-28T01:42:42;9.00;99.90
13980;DHT22;73871;49.900;8.594;2023-12-28T01:45:09;9.10;99.90
13980;DHT22;73871;49.900;8.594;2023-12-28T01:47:37;9.20;99.90
13980;DHT22;73871;49.900;8.594;2023-12-28T01:50:06;9.20;99.90
13980;DHT22;73871;49.900;8.594;2023-12-28T01:52:33;9.20;99.90
13980;DHT22;73871;49.900;8.594;2023-12-28T01:55:01;9.20;99.90
13980;DHT22;73871;49.900;8.594;2023-12-28T01:57:29;9.20;99.90
13980;DHT22;73871;49.900;8.594;2023-12-28T01:59:57;9.20;99.90
13980;DHT22;73871;49.900;8.594;2023-12-28T02:02:28;9.30;99.90
13980;DHT22;73871;49.900;8.594;2023-12-28T02:04:56;9.20;99.90
13980;DHT22;73871;49.900;8.594;2023-12-28T02:07:24;9.20;99.90
13980;DHT22;73871;49.900;8.594;2023-12-28T02:09:52;9.30;99.90
13980;DHT22;73871;49.900;8.594;2023-12-28T02:12:19;9.20;99.90
13980;DHT22;73871;49.900;8.594;2023-12-28T02:14:47;9.20;99.90
13980;DHT22;73871;49.900;8.594;2023-12-28T02:17:30;9.10;99.90
13980;DHT22;73871;49.900;8.594;2023-12-28T02:20:00;9.10;99.90
13980;DHT22;73871;49.900;8.594;2023-12-28T02:22:31;9.10;99.90
13980;DHT22;73871;49.900;8.594;2023-12-28T02:24:59;9.10;99.90
13980;DHT22;73871;49.900;8.594;2023-12-28T02:27:26;9.10;99.90
13980;DHT22;73871;49.900;8.594;2023-12-28T02:29:54;9.10;99.90
13980;DHT22;73871;49.900;8.594;2023-12-28T02:32:26;9.20;99.90
13980;DHT22;73871;49.900;8.594;2023-12-28T02:35:08;9.10;99.90
13980;DHT22;73871;49.900;8.594;2023-12-28T02:37:38;9.20;99.90
13980;DHT22;73871;49.900;8.594;2023-12-28T02:40:06;9.20;99.90
13980;DHT22;73871;49.900;8.594;2023-12-28T02:42:33;9.10;99.90
13980;DHT22;73871;49.900;8.594;2023-12-28T02:45:00;9.10;99.90
13980;DHT22;73871;49.900;8.594;2023-12-28T02:47:26;9.10;99.90
13980;DHT22;73871;49.900;8.594;2023-12-28T02:49:53;9.00;99.90
13980;DHT22;73871;49.900;8.594;2023-12-28T02:52:21;9.00;99.90
13980;DHT22;73871;49.900;8.594;2023-12-28T02:54:48;9.00;99.90
13980;DHT22;73871;49.900;8.594;2023-12-28T02:57:15;9.00;99.90
13980;DHT22;73871;49.900;8.594;2023-12-28T02:59:45;8.90;99.90
13980;DHT22;73871;49.900;8.594;2023-12-28T03:02:12;9.00;99.90
13980;DHT22;73871;49.900;8.594;2023-12-28T03:04:39;9.00;99.90
13980;DHT22;73871;49.900;8.594;2023-12-28T03:07:07;9.00;99.90
13980;DHT22;73871;49.900;8.594;2023-12-28T03:09:34;8.90;99.90
13980;DHT22;73871;49.900;8.594;2023-12-28T03:12:01;8.90;99.90
13980;DHT22;73871;49.900;8.594;2023-12-28T03:14:28;8.80;99.90
13980;DHT22;73871;49.900;8.594;2023-12-28T03:16:55;8.80;99.90
13980;DHT22;73871;49.900;8.594;2023-12-28T03:19:21;8.80;99.90
13980;DHT22;73871;49.900;8.594;2023-12-28T03:21:48;8.80;99.90
13980;DHT22;73871;49.900;8.594;2023-12-28T03:24:15;8.80;99.90
13980;DHT22;73871;49.900;8.594;2023-12-28T03:26:42;8.90;99.90
13980;DHT22;73871;49.900;8.594;2023-12-28T03:29:09;8.90;99.90
13980;DHT22;73871;49.900;8.594;2023-12-28T03:31:39;8.90;99.90
13980;DHT22;73871;49.900;8.594;2023-12-28T03:34:07;8.90;99.90
13980;DHT22;73871;49.900;8.594;2023-12-28T03:36:35;8.90;99.90
13980;DHT22;73871;49.900;8.594;2023-12-28T03:39:02;8.80;99.90
13980;DHT22;73871;49.900;8.594;2023-12-28T03:41:30;8.90;99.90
13980;DHT22;73871;49.900;8.594;2023-12-28T03:43:57;8.90;99.90
13980;DHT22;73871;49.900;8.594;2023-12-28T03:46:24;8.80;99.90
13980;DHT22;73871;49.900;8.594;2023-12-28T03:48:50;8.80;99.90
13980;DHT22;73871;49.900;8.594;2023-12-28T03:51:17;8.80;99.90
13980;DHT22;73871;49.900;8.594;2023-12-28T03:53:45;8.90;99.90
13980;DHT22;73871;49.900;8.594;2023-12-28T03:56:22;8.90;99.90
13980;DHT22;73871;49.900;8.594;2023-12-28T03:58:50;8.90;99.90
13980;DHT22;73871;49.900;8.594;2023-12-28T04:01:18;9.00;99.90
13980;DHT22;73871;49.900;8.594;2023-12-28T04:03:46;9.00;99.90
13980;DHT22;73871;49.900;8.594;2023-12-28T04:06:14;9.00;99.90
13980;DHT22;73871;49.900;8.594;2023-12-28T04:08:42;9.00;99.90
13980;DHT22;73871;49.900;8.594;2023-12-28T04:11:10;9.00;99.90
13980;DHT22;73871;49.900;8.594;2023-12-28T04:13:37;9.00;99.90
13980;DHT22;73871;49.900;8.594;2023-12-28T04:16:04;9.00;99.90
13980;DHT22;73871;49.900;8.594;2023-12-28T04:18:32;8.90;99.90
13980;DHT22;73871;49.900;8.594;2023-12-28T04:20:59;9.00;99.90
13980;DHT22;73871;49.900;8.594;2023-12-28T04:23:26;9.10;99.90
13980;DHT22;73871;49.900;8.594;2023-12-28T04:25:53;9.10;99.90
13980;DHT22;73871;49.900;8.594;2023-12-28T04:28:20;9.20;99.90
13980;DHT22;73871;49.900;8.594;2023-12-28T04:30:46;9.20;99.90
13980;DHT22;73871;49.900;8.594;2023-12-28T04:33:16;9.30;99.90
13980;DHT22;73871;49.900;8.594;2023-12-28T04:35:43;9.30;99.90
13980;DHT22;73871;49.900;8.594;2023-12-28T04:38:10;9.30;99.90
13980;DHT22;73871;49.900;8.594;2023-12-28T04:40:37;9.30;99.90
13980;DHT22;73871;49.900;8.594;2023-12-28T04:43:04;9.30;99.90
13980;DHT22;73871;49.900;8.594;2023-12-28T04:45:30;9.40;99.90
13980;DHT22;73871;49.900;8.594;2023-12-28T04:47:57;9.40;99.90
13980;DHT22;73871;49.900;8.594;2023-12-28T04:50:25;9.40;99.90
13980;DHT22;73871;49.900;8.594;2023-12-28T04:52:51;9.40;99.90
13980;DHT22;73871;49.900;8.594;2023-12-28T04:55:19;9.40;99.90
13980;DHT22;73871;49.900;8.594;2023-12-28T04:57:47;9.40;99.90
13980;DHT22;73871;49.900;8.594;2023-12-28T05:00:14;9.50;99.90
13980;DHT22;73871;49.900;8.594;2023-12-28T05:02:41;9.50;99.90
13980;DHT22;73871;49.900;8.594;2023-12-28T05:05:08;9.50;99.90
13980;DHT22;73871;49.900;8.594;2023-12-28T05:07:38;9.50;99.90
13980;DHT22;73871;49.900;8.594;2023-12-28T05:10:07;9.50;99.90
13980;DHT22;73871;49.900;8.594;2023-12-28T05:12:34;9.50;99.90
13980;DHT22;73871;49.900;8.594;2023-12-28T05:15:10;9.50;99.90
13980;DHT22;73871;49.900;8.594;2023-12-28T05:17:37;9.50;99.90
13980;DHT22;73871;49.900;8.594;2023-12-28T05:20:04;9.50;99.90
13980;DHT22;73871;49.900;8.594;2023-12-28T05:22:31;9.50;99.90
13980;DHT22;73871;49.900;8.594;2023-12-28T05:24:58;9.50;99.90
13980;DHT22;73871;49.900;8.594;2023-12-28T05:27:25;9.50;99.90
13980;DHT22;73871;49.900;8.594;2023-12-28T05:29:52;9.50;99.90
13980;DHT22;73871;49.900;8.594;2023-12-28T05:32:18;9.50;99.90
13980;DHT22;73871;49.900;8.594;2023-12-28T05:34:45;9.50;99.90
13980;DHT22;73871;49.900;8.594;2023-12-28T05:37:12;9.50;99.90
13980;DHT22;73871;49.900;8.594;2023-12-28T05:39:39;9.50;99.90
13980;DHT22;73871;49.900;8.594;2023-12-28T05:42:06;9.50;99.90
13980;DHT22;73871;49.900;8.594;2023-12-28T05:44:32;9.50;99.90
13980;DHT22;73871;49.900;8.594;2023-12-28T05:47:01;9.50;99.90
13980;DHT22;73871;49.900;8.594;2023-12-28T05:49:29;9.50;99.90
13980;DHT22;73871;49.900;8.594;2023-12-28T05:51:57;9.40;99.90
13980;DHT22;73871;49.900;8.594;2023-12-28T05:54:24;9.50;99.90
13980;DHT22;73871;49.900;8.594;2023-12-28T05:56:52;9.50;99.90
13980;DHT22;73871;49.900;8.594;2023-12-28T05:59:19;9.60;99.90
13980;DHT22;73871;49.900;8.594;2023-12-28T06:01:48;9.50;99.90
13980;DHT22;73871;49.900;8.594;2023-12-28T06:04:15;9.60;99.90
13980;DHT22;73871;49.900;8.594;2023-12-28T06:06:42;9.60;99.90
13980;DHT22;73871;49.900;8.594;2023-12-28T06:09:09;9.60;99.90
13980;DHT22;73871;49.900;8.594;2023-12-28T06:11:35;9.60;99.90
13980;DHT22;73871;49.900;8.594;2023-12-28T06:14:02;9.60;99.90
13980;DHT22;73871;49.900;8.594;2023-12-28T06:16:29;9.60;99.90
13980;DHT22;73871;49.900;8.594;2023-12-28T06:18:59;9.60;99.90
13980;DHT22;73871;49.900;8.594;2023-12-28T06:21:27;9.60;99.90
13980;DHT22;73871;49.900;8.594;2023-12-28T06:23:54;9.60;99.90
13980;DHT22;73871;49.900;8.594;2023-12-28T06:26:22;9.60;99.90
13980;DHT22;73871;49.900;8.594;2023-12-28T06:28:48;9.70;99.90
13980;DHT22;73871;49.900;8.594;2023-12-28T06:31:15;9.70;99.90
13980;DHT22;73871;49.900;8.594;2023-12-28T06:33:42;9.80;99.90
13980;DHT22;73871;49.900;8.594;2023-12-28T06:36:11;9.70;99.90
13980;DHT22;73871;49.900;8.594;2023-12-28T06:38:38;9.70;99.90
13980;DHT22;73871;49.900;8.594;2023-12-28T06:41:12;9.70;99.90
13980;DHT22;73871;49.900;8.594;2023-12-28T06:43:39;9.60;99.90
13980;DHT22;73871;49.900;8.594;2023-12-28T06:46:06;9.60;99.90
13980;DHT22;73871;49.900;8.594;2023-12-28T06:48:33;9.70;99.90
13980;DHT22;73871;49.900;8.594;2023-12-28T06:51:00;9.70;99.90
13980;DHT22;73871;49.900;8.594;2023-12-28T06:53:27;9.70;99.90
13980;DHT22;73871;49.900;8.594;2023-12-28T06:55:53;9.70;99.90
13980;DHT22;73871;49.900;8.594;2023-12-28T06:58:20;9.70;99.90
13980;DHT22;73871;49.900;8.594;2023-12-28T07:00:47;9.70;99.90
13980;DHT22;73871;49.900;8.594;2023-12-28T07:03:14;9.60;99.90
13980;DHT22;73871;49.900;8.594;2023-12-28T07:05:41;9.60;99.90
13980;DHT22;73871;49.900;8.594;2023-12-28T07:08:08;9.60;99.90
13980;DHT22;73871;49.900;8.594;2023-12-28T07:10:35;9.70;99.90
13980;DHT22;73871;49.900;8.594;2023-12-28T07:13:02;9.60;99.90
13980;DHT22;73871;49.900;8.594;2023-12-28T07:15:29;9.60;99.90
13980;DHT22;73871;49.900;8.594;2023-12-28T07:17:56;9.60;99.90
13980;DHT22;73871;49.900;8.594;2023-12-28T07:20:23;9.60;99.90
13980;DHT22;73871;49.900;8.594;2023-12-28T07:22:50;9.50;99.90
13980;DHT22;73871;49.900;8.594;2023-12-28T07:25:20;9.60;99.90
13980;DHT22;73871;49.900;8.594;2023-12-28T07:27:48;9.60;99.90
13980;DHT22;73871;49.900;8.594;2023-12-28T07:30:14;9.60;99.90
13980;DHT22;73871;49.900;8.594;2023-12-28T07:32:43;9.60;99.90
13980;DHT22;73871;49.900;8.594;2023-12-28T07:35:11;9.60;99.90
13980;DHT22;73871;49.900;8.594;2023-12-28T07:37:38;9.70;99.90
13980;DHT22;73871;49.900;8.594;2023-12-28T07:40:05;9.70;99.90
13980;DHT22;73871;49.900;8.594;2023-12-28T07:42:32;9.70;99.90
13980;DHT22;73871;49.900;8.594;2023-12-28T07:44:59;9.60;99.90
13980;DHT22;73871;49.900;8.594;2023-12-28T07:47:26;9.60;99.90
13980;DHT22;73871;49.900;8.594;2023-12-28T07:49:53;9.60;99.90
13980;DHT22;73871;49.900;8.594;2023-12-28T07:52:20;9.60;99.90
13980;DHT22;73871;49.900;8.594;2023-12-28T07:54:47;9.50;99.90
13980;DHT22;73871;49.900;8.594;2023-12-28T07:57:14;9.50;99.90
13980;DHT22;73871;49.900;8.594;2023-12-28T07:59:41;9.50;99.90
13980;DHT22;73871;49.900;8.594;2023-12-28T08:02:08;9.50;99.90
13980;DHT22;73871;49.900;8.594;2023-12-28T08:04:35;9.50;99.90
13980;DHT22;73871;49.900;8.594;2023-12-28T08:07:02;9.50;99.90
13980;DHT22;73871;49.900;8.594;2023-12-28T08:09:28;9.50;99.90
13980;DHT22;73871;49.900;8.594;2023-12-28T08:11:56;9.40;99.90
13980;DHT22;73871;49.900;8.594;2023-12-28T08:14:22;9.40;99.90
13980;DHT22;73871;49.900;8.594;2023-12-28T08:16:49;9.40;99.90
13980;DHT22;73871;49.900;8.594;2023-12-28T08:19:16;9.40;99.90
13980;DHT22;73871;49.900;8.594;2023-12-28T08:21:42;9.40;99.90
13980;DHT22;73871;49.900;8.594;2023-12-28T08:24:10;9.40;99.90
13980;DHT22;73871;49.900;8.594;2023-12-28T08:26:36;9.40;99.90
13980;DHT22;73871;49.900;8.594;2023-12-28T08:29:03;9.50;99.90
13980;DHT22;73871;49.900;8.594;2023-12-28T08:31:30;9.50;99.90
13980;DHT22;73871;49.900;8.594;2023-12-28T08:33:57;9.50;99.90
13980;DHT22;73871;49.900;8.594;2023-12-28T08:36:24;9.50;99.90
13980;DHT22;73871;49.900;8.594;2023-12-28T08:38:51;9.50;99.90
13980;DHT22;73871;49.900;8.594;2023-12-28T08:41:19;9.50;99.90
13980;DHT22;73871;49.900;8.594;2023-12-28T08:43:47;9.50;99.90
13980;DHT22;73871;49.900;8.594;2023-12-28T08:46:14;9.60;99.90
13980;DHT22;73871;49.900;8.594;2023-12-28T08:48:43;9.60;99.90
13980;DHT22;73871;49.900;8.594;2023-12-28T08:51:12;9.60;99.90
13980;DHT22;73871;49.900;8.594;2023-12-28T08:53:41;9.60;99.90
13980;DHT22;73871;49.900;8.594;2023-12-28T08:56:21;9.60;99.90
13980;DHT22;73871;49.900;8.594;2023-12-28T08:58:49;9.60;99.90
13980;DHT22;73871;49.900;8.594;2023-12-28T09:01:21;9.60;99.90
13980;DHT22;73871;49.900;8.594;2023-12-28T09:03:49;9.70;99.90
13980;DHT22;73871;49.900;8.594;2023-12-28T09:06:17;9.70;99.90
13980;DHT22;73871;49.900;8.594;2023-12-28T09:08:47;9.70;99.90
13980;DHT22;73871;49.900;8.594;2023-12-28T09:11:14;9.80;99.90
13980;DHT22;73871;49.900;8.594;2023-12-28T09:13:41;9.80;99.90
13980;DHT22;73871;49.900;8.594;2023-12-28T09:16:10;9.90;99.90
13980;DHT22;73871;49.900;8.594;2023-12-28T09:18:38;9.80;99.90
13980;DHT22;73871;49.900;8.594;2023-12-28T09:21:06;9.90;99.90
13980;DHT22;73871;49.900;8.594;2023-12-28T09:23:34;9.90;99.90
13980;DHT22;73871;49.900;8.594;2023-12-28T09:26:02;10.00;99.90
13980;DHT22;73871;49.900;8.594;2023-12-28T09:28:30;10.10;99.90
13980;DHT22;73871;49.900;8.594;2023-12-28T09:30:57;10.20;99.90
13980;DHT22;73871;49.900;8.594;2023-12-28T09:33:24;10.40;99.90
13980;DHT22;73871;49.900;8.594;2023-12-28T09:35:51;10.50;99.90
13980;DHT22;73871;49.900;8.594;2023-12-28T09:38:20;10.70;99.90
13980;DHT22;73871;49.900;8.594;2023-12-28T09:40:47;10.80;99.90
13980;DHT22;73871;49.900;8.594;2023-12-28T09:43:30;10.80;99.90
13980;DHT22;73871;49.900;8.594;2023-12-28T09:46:09;11.00;99.90
13980;DHT22;73871;49.900;8.594;2023-12-28T09:48:38;11.30;99.90
13980;DHT22;73871;49.900;8.594;2023-12-28T09:51:10;11.50;99.90
13980;DHT22;73871;49.900;8.594;2023-12-28T09:53:43;11.50;99.90
13980;DHT22;73871;49.900;8.594;2023-12-28T09:56:12;11.50;99.90
13980;DHT22;73871;49.900;8.594;2023-12-28T09:58:39;11.40;99.90
13980;DHT22;73871;49.900;8.594;2023-12-28T10:01:07;11.40;99.90
13980;DHT22;73871;49.900;8.594;2023-12-28T10:03:36;11.40;99.90
13980;DHT22;73871;49.900;8.594;2023-12-28T10:06:03;11.40;99.90
13980;DHT22;73871;49.900;8.594;2023-12-28T10:08:30;11.30;99.90
13980;DHT22;73871;49.900;8.594;2023-12-28T10:10:57;11.30;99.90
13980;DHT22;73871;49.900;8.594;2023-12-28T10:13:25;11.10;99.90
13980;DHT22;73871;49.900;8.594;2023-12-28T10:15:53;10.90;99.90
13980;DHT22;73871;49.900;8.594;2023-12-28T10:18:23;10.80;99.90
13980;DHT22;73871;49.900;8.594;2023-12-28T10:20:51;10.90;99.90
13980;DHT22;73871;49.900;8.594;2023-12-28T10:23:21;11.00;99.90
13980;DHT22;73871;49.900;8.594;2023-12-28T10:25:50;11.00;99.90
13980;DHT22;73871;49.900;8.594;2023-12-28T10:28:20;11.00;99.90
13980;DHT22;73871;49.900;8.594;2023-12-28T10:30:46;11.00;99.90
13980;DHT22;73871;49.900;8.594;2023-12-28T10:33:14;11.00;99.90
13980;DHT22;73871;49.900;8.594;2023-12-28T10:35:44;10.90;99.90
13980;DHT22;73871;49.900;8.594;2023-12-28T10:38:13;10.80;99.90
13980;DHT22;73871;49.900;8.594;2023-12-28T10:40:44;10.80;99.90
13980;DHT22;73871;49.900;8.594;2023-12-28T10:43:14;10.70;99.90
13980;DHT22;73871;49.900;8.594;2023-12-28T10:45:42;10.70;99.90
13980;DHT22;73871;49.900;8.594;2023-12-28T10:48:13;10.60;99.90
13980;DHT22;73871;49.900;8.594;2023-12-28T10:50:42;10.50;99.90
13980;DHT22;73871;49.900;8.594;2023-12-28T10:56:11;10.40;99.90
13980;DHT22;73871;49.900;8.594;2023-12-28T11:01:24;10.40;99.90
13980;DHT22;73871;49.900;8.594;2023-12-28T11:04:23;10.30;99.90
13980;DHT22;73871;49.900;8.594;2023-12-28T11:06:43;10.30;99.90
13980;DHT22;73871;49.900;8.594;2023-12-28T11:09:11;10.30;99.90
13980;DHT22;73871;49.900;8.594;2023-12-28T11:11:40;10.30;99.90
13980;DHT22;73871;49.900;8.594;2023-12-28T11:14:08;10.40;99.90
13980;DHT22;73871;49.900;8.594;2023-12-28T11:16:37;10.20;99.90
13980;DHT22;73871;49.900;8.594;2023-12-28T11:19:05;10.20;99.90
13980;DHT22;73871;49.900;8.594;2023-12-28T11:21:33;10.20;99.90
13980;DHT22;73871;49.900;8.594;2023-12-28T11:24:01;10.20;99.90
13980;DHT22;73871;49.900;8.594;2023-12-28T11:26:28;10.20;99.90
13980;DHT22;73871;49.900;8.594;2023-12-28T11:29:02;10.30;99.90
13980;DHT22;73871;49.900;8.594;2023-12-28T11:31:34;10.40;99.90
13980;DHT22;73871;49.900;8.594;2023-12-28T11:34:04;10.60;99.90
13980;DHT22;73871;49.900;8.594;2023-12-28T11:36:46;10.80;99.90
13980;DHT22;73871;49.900;8.594;2023-12-28T11:39:20;10.90;99.90
13980;DHT22;73871;49.900;8.594;2023-12-28T11:41:51;11.00;99.90
13980;DHT22;73871;49.900;8.594;2023-12-28T11:44:17;11.10;99.90
13980;DHT22;73871;49.900;8.594;2023-12-28T11:46:44;11.20;99.90
13980;DHT22;73871;49.900;8.594;2023-12-28T11:49:11;11.10;99.90
13980;DHT22;73871;49.900;8.594;2023-12-28T11:51:39;11.00;99.90
13980;DHT22;73871;49.900;8.594;2023-12-28T11:54:06;10.90;99.90
13980;DHT22;73871;49.900;8.594;2023-12-28T11:56:33;10.80;99.90
13980;DHT22;73871;49.900;8.594;2023-12-28T11:59:00;10.80;99.90
13980;DHT22;73871;49.900;8.594;2023-12-28T12:01:27;10.70;99.90
13980;DHT22;73871;49.900;8.594;2023-12-28T12:03:54;10.90;99.90
13980;DHT22;73871;49.900;8.594;2023-12-28T12:06:20;11.10;99.90
13980;DHT22;73871;49.900;8.594;2023-12-28T12:08:48;11.20;99.90
13980;DHT22;73871;49.900;8.594;2023-12-28T12:11:17;11.40;99.90
13980;DHT22;73871;49.900;8.594;2023-12-28T12:13:45;11.60;99.90
13980;DHT22;73871;49.900;8.594;2023-12-28T12:16:15;11.70;99.90
13980;DHT22;73871;49.900;8.594;2023-12-28T12:18:42;11.90;99.90
13980;DHT22;73871;49.900;8.594;2023-12-28T12:21:09;11.90;99.90
13980;DHT22;73871;49.900;8.594;2023-12-28T12:23:36;11.90;99.90
13980;DHT22;73871;49.900;8.594;2023-12-28T12:26:07;11.70;99.90
13980;DHT22;73871;49.900;8.594;2023-12-28T12:28:33;11.60;99.90
13980;DHT22;73871;49.900;8.594;2023-12-28T12:31:00;11.50;99.90
13980;DHT22;73871;49.900;8.594;2023-12-28T12:33:28;11.30;99.90
13980;DHT22;73871;49.900;8.594;2023-12-28T12:35:55;11.20;99.90
13980;DHT22;73871;49.900;8.594;2023-12-28T12:38:22;11.30;99.90
13980;DHT22;73871;49.900;8.594;2023-12-28T12:40:51;11.30;99.90
13980;DHT22;73871;49.900;8.594;2023-12-28T12:43:18;11.30;99.90
13980;DHT22;73871;49.900;8.594;2023-12-28T12:45:49;11.40;99.90
13980;DHT22;73871;49.900;8.594;2023-12-28T12:48:15;11.50;99.90
13980;DHT22;73871;49.900;8.594;2023-12-28T12:50:44;11.50;99.90
13980;DHT22;73871;49.900;8.594;2023-12-28T12:53:10;11.40;99.90
13980;DHT22;73871;49.900;8.594;2023-12-28T12:55:38;11.20;99.90
13980;DHT22;73871;49.900;8.594;2023-12-28T12:58:05;11.20;99.90
13980;DHT22;73871;49.900;8.594;2023-12-28T13:00:32;11.10;99.90
13980;DHT22;73871;49.900;8.594;2023-12-28T13:03:00;11.00;99.90
13980;DHT22;73871;49.900;8.594;2023-12-28T13:05:28;11.00;99.90
13980;DHT22;73871;49.900;8.594;2023-12-28T13:07:55;10.90;99.90
13980;DHT22;73871;49.900;8.594;2023-12-28T13:10:22;11.00;99.90
13980;DHT22;73871;49.900;8.594;2023-12-28T13:12:49;11.20;99.90
13980;DHT22;73871;49.900;8.594;2023-12-28T13:15:16;11.30;99.90
13980;DHT22;73871;49.900;8.594;2023-12-28T13:17:43;11.20;99.90
13980;DHT22;73871;49.900;8.594;2023-12-28T13:20:10;11.20;99.90
13980;DHT22;73871;49.900;8.594;2023-12-28T13:22:37;11.10;99.90
13980;DHT22;73871;49.900;8.594;2023-12-28T13:25:04;11.20;99.90
13980;DHT22;73871;49.900;8.594;2023-12-28T13:27:32;11.10;99.90
13980;DHT22;73871;49.900;8.594;2023-12-28T13:30:00;11.00;99.90
13980;DHT22;73871;49.900;8.594;2023-12-28T13:32:27;10.80;99.90
13980;DHT22;73871;49.900;8.594;2023-12-28T13:34:54;10.90;99.90
13980;DHT22;73871;49.900;8.594;2023-12-28T13:37:24;10.80;99.90
13980;DHT22;73871;49.900;8.594;2023-12-28T13:39:51;10.60;99.90
13980;DHT22;73871;49.900;8.594;2023-12-28T13:42:18;10.60;99.90
13980;DHT22;73871;49.900;8.594;2023-12-28T13:44:45;10.50;99.90
13980;DHT22;73871;49.900;8.594;2023-12-28T13:47:12;10.40;99.90
13980;DHT22;73871;49.900;8.594;2023-12-28T13:49:39;10.40;99.90
13980;DHT22;73871;49.900;8.594;2023-12-28T13:52:06;10.30;99.90
13980;DHT22;73871;49.900;8.594;2023-12-28T13:54:32;10.30;99.90
13980;DHT22;73871;49.900;8.594;2023-12-28T13:56:59;10.30;99.90
13980;DHT22;73871;49.900;8.594;2023-12-28T13:59:26;10.10;99.90
13980;DHT22;73871;49.900;8.594;2023-12-28T14:01:53;10.20;99.90
13980;DHT22;73871;49.900;8.594;2023-12-28T14:04:20;10.30;99.90
13980;DHT22;73871;49.900;8.594;2023-12-28T14:06:47;10.30;99.90
13980;DHT22;73871;49.900;8.594;2023-12-28T14:09:14;10.40;99.90
13980;DHT22;73871;49.900;8.594;2023-12-28T14:11:46;10.30;99.90
13980;DHT22;73871;49.900;8.594;2023-12-28T14:14:14;10.30;99.90
13980;DHT22;73871;49.900;8.594;2023-12-28T14:16:41;10.30;99.90
13980;DHT22;73871;49.900;8.594;2023-12-28T14:19:10;10.30;99.90
13980;DHT22;73871;49.900;8.594;2023-12-28T14:21:38;10.30;99.90
13980;DHT22;73871;49.900;8.594;2023-12-28T14:24:05;10.40;99.90
13980;DHT22;73871;49.900;8.594;2023-12-28T14:26:33;10.50;99.90
13980;DHT22;73871;49.900;8.594;2023-12-28T14:29:00;10.50;99.90
13980;DHT22;73871;49.900;8.594;2023-12-28T14:31:32;10.60;99.90
13980;DHT22;73871;49.900;8.594;2023-12-28T14:33:59;10.60;99.90
13980;DHT22;73871;49.900;8.594;2023-12-28T14:36:31;10.70;99.90
13980;DHT22;73871;49.900;8.594;2023-12-28T14:39:11;10.80;99.90
13980;DHT22;73871;49.900;8.594;2023-12-28T14:41:38;10.80;99.90
13980;DHT22;73871;49.900;8.594;2023-12-28T14:44:09;10.80;99.90
13980;DHT22;73871;49.900;8.594;2023-12-28T14:46:36;10.50;99.90
13980;DHT22;73871;49.900;8.594;2023-12-28T14:49:03;10.40;99.90
13980;DHT22;73871;49.900;8.594;2023-12-28T14:51:32;10.20;99.90
13980;DHT22;73871;49.900;8.594;2023-12-28T14:53:59;10.00;99.90
13980;DHT22;73871;49.900;8.594;2023-12-28T14:56:25;10.10;99.90
13980;DHT22;73871;49.900;8.594;2023-12-28T14:58:58;10.10;99.90
13980;DHT22;73871;49.900;8.594;2023-12-28T15:01:25;10.10;99.90
13980;DHT22;73871;49.900;8.594;2023-12-28T15:03:52;10.10;99.90
13980;DHT22;73871;49.900;8.594;2023-12-28T15:06:19;10.20;99.90
13980;DHT22;73871;49.900;8.594;2023-12-28T15:08:46;10.10;99.90
13980;DHT22;73871;49.900;8.594;2023-12-28T15:11:12;10.00;99.90
13980;DHT22;73871;49.900;8.594;2023-12-28T15:13:40;10.00;99.90
13980;DHT22;73871;49.900;8.594;2023-12-28T15:16:07;9.90;99.90
13980;DHT22;73871;49.900;8.594;2023-12-28T15:18:34;9.90;99.90
13980;DHT22;73871;49.900;8.594;2023-12-28T15:21:02;9.80;99.90
13980;DHT22;73871;49.900;8.594;2023-12-28T15:23:29;9.80;99.90
13980;DHT22;73871;49.900;8.594;2023-12-28T15:25:56;9.70;99.90
13980;DHT22;73871;49.900;8.594;2023-12-28T15:28:22;9.70;99.90
13980;DHT22;73871;49.900;8.594;2023-12-28T15:30:50;9.70;99.90
13980;DHT22;73871;49.900;8.594;2023-12-28T15:33:17;9.60;99.90
13980;DHT22;73871;49.900;8.594;2023-12-28T15:35:44;9.60;99.90
13980;DHT22;73871;49.900;8.594;2023-12-28T15:38:10;9.60;99.90
13980;DHT22;73871;49.900;8.594;2023-12-28T15:40:37;9.60;99.90
13980;DHT22;73871;49.900;8.594;2023-12-28T15:43:04;9.50;99.90
13980;DHT22;73871;49.900;8.594;2023-12-28T15:45:31;9.50;99.90
13980;DHT22;73871;49.900;8.594;2023-12-28T15:47:58;9.50;99.90
13980;DHT22;73871;49.900;8.594;2023-12-28T15:50:25;9.50;99.90